sensor_id;sensor_type;location;lat;lon;timestamp;P1;durP1;ratioP1;P2;durP2;ratioP2
50968;SDS011;36982;51.474;7.228;2023-07-20T00:01:03;6.57;;;3.13;;
50968;SDS011;36982;51.474;7.228;2023-07-20T00:03:29;6.20;;;3.33;;
50968;SDS011;36982;51.474;7.228;2023-07-20T00:05:54;5.80;;;3.03;;
50968;SDS011;36982;51.474;7.228;2023-07-20T00:08:20;5.60;;;3.30;;
50968;SDS011;36982;51.474;7.228;2023-07-20T00:10:46;5.00;;;3.28;;
50968;SDS011;36982;51.474;7.228;2023-07-20T00:13:11;4.67;;;3.37;;
50968;SDS011;36982;51.474;7.228;2023-07-20T00:15:37;5.32;;;3.33;;
50968;SDS011;36982;51.474;7.228;2023-07-20T00:18:03;6.30;;;3.37;;
50968;SDS011;36982;51.474;7.228;2023-07-20T00:20:29;5.85;;;3.55;;
50968;SDS011;36982;51.474;7.228;2023-07-20T00:22:55;6.68;;;3.90;;
50968;SDS011;36982;51.474;7.228;2023-07-20T00:25:22;6.37;;;3.60;;
50968;SDS011;36982;51.474;7.228;2023-07-20T00:27:49;6.32;;;3.55;;
50968;SDS011;36982;51.474;7.228;2023-07-20T00:30:15;5.35;;;3.60;;
50968;SDS011;36982;51.474;7.228;2023-07-20T00:32:41;5.83;;;3.47;;
50968;SDS011;36982;51.474;7.228;2023-07-20T00:35:07;6.13;;;3.70;;
50968;SDS011;36982;51.474;7.228;2023-07-20T00:37:33;6.57;;;3.92;;
50968;SDS011;36982;51.474;7.228;2023-07-20T00:39:59;6.72;;;3.53;;
50968;SDS011;36982;51.474;7.228;2023-07-20T00:42:24;5.00;;;3.77;;
50968;SDS011;36982;51.474;7.228;2023-07-20T00:44:50;5.27;;;3.50;;
50968;SDS011;36982;51.474;7.228;2023-07-20T00:47:15;5.40;;;3.60;;
50968;SDS011;36982;51.474;7.228;2023-07-20T00:49:41;7.13;;;3.50;;
50968;SDS011;36982;51.474;7.228;2023-07-20T00:52:08;4.80;;;3.40;;
50968;SDS011;36982;51.474;7.228;2023-07-20T00:54:38;3.90;;;2.90;;
50968;SDS011;36982;51.474;7.228;2023-07-20T00:57:04;6.70;;;3.87;;
50968;SDS011;36982;51.474;7.228;2023-07-20T00:59:32;7.10;;;3.70;;
50968;SDS011;36982;51.474;7.228;2023-07-20T01:01:58;7.27;;;3.30;;
50968;SDS011;36982;51.474;7.228;2023-07-20T01:04:23;4.83;;;3.40;;
50968;SDS011;36982;51.474;7.228;2023-07-20T01:06:53;6.13;;;3.87;;
50968;SDS011;36982;51.474;7.228;2023-07-20T01:09:45;5.93;;;4.00;;
50968;SDS011;36982;51.474;7.228;2023-07-20T01:14:43;5.33;;;3.67;;
50968;SDS011;36982;51.474;7.228;2023-07-20T01:17:08;6.47;;;3.60;;
50968;SDS011;36982;51.474;7.228;2023-07-20T01:19:34;6.40;;;4.00;;
50968;SDS011;36982;51.474;7.228;2023-07-20T01:24:57;5.87;;;3.73;;
50968;SDS011;36982;51.474;7.228;2023-07-20T01:30:55;6.53;;;4.10;;
50968;SDS011;36982;51.474;7.228;2023-07-20T01:33:44;5.77;;;4.30;;
50968;SDS011;36982;51.474;7.228;2023-07-20T01:36:12;7.32;;;4.40;;
50968;SDS011;36982;51.474;7.228;2023-07-20T01:38:39;7.60;;;4.53;;
50968;SDS011;36982;51.474;7.228;2023-07-20T01:41:06;5.53;;;4.27;;
50968;SDS011;36982;51.474;7.228;2023-07-20T01:43:33;9.93;;;4.60;;
50968;SDS011;36982;51.474;7.228;2023-07-20T01:45:59;6.17;;;4.20;;
50968;SDS011;36982;51.474;7.228;2023-07-20T01:48:25;8.10;;;4.23;;
50968;SDS011;36982;51.474;7.228;2023-07-20T01:50:50;7.50;;;5.10;;
50968;SDS011;36982;51.474;7.228;2023-07-20T01:53:16;6.37;;;4.73;;
50968;SDS011;36982;51.474;7.228;2023-07-20T01:55:41;5.63;;;4.40;;
50968;SDS011;36982;51.474;7.228;2023-07-20T01:58:07;7.70;;;4.87;;
50968;SDS011;36982;51.474;7.228;2023-07-20T02:00:32;7.23;;;4.40;;
50968;SDS011;36982;51.474;7.228;2023-07-20T02:02:58;8.73;;;4.57;;
50968;SDS011;36982;51.474;7.228;2023-07-20T02:05:24;9.37;;;4.93;;
50968;SDS011;36982;51.474;7.228;2023-07-20T02:07:50;5.65;;;4.50;;
50968;SDS011;36982;51.474;7.228;2023-07-20T02:10:16;8.00;;;4.60;;
50968;SDS011;36982;51.474;7.228;2023-07-20T02:12:42;7.70;;;4.93;;
50968;SDS011;36982;51.474;7.228;2023-07-20T02:15:07;7.65;;;4.95;;
50968;SDS011;36982;51.474;7.228;2023-07-20T02:17:33;8.07;;;5.17;;
50968;SDS011;36982;51.474;7.228;2023-07-20T02:19:59;7.07;;;5.03;;
50968;SDS011;36982;51.474;7.228;2023-07-20T02:22:24;10.53;;;5.50;;
50968;SDS011;36982;51.474;7.228;2023-07-20T02:24:50;8.70;;;5.07;;
50968;SDS011;36982;51.474;7.228;2023-07-20T02:27:16;8.63;;;4.93;;
50968;SDS011;36982;51.474;7.228;2023-07-20T02:29:42;7.13;;;5.13;;
50968;SDS011;36982;51.474;7.228;2023-07-20T02:32:08;6.87;;;5.27;;
50968;SDS011;36982;51.474;7.228;2023-07-20T02:34:34;9.23;;;4.90;;
50968;SDS011;36982;51.474;7.228;2023-07-20T02:37:00;7.57;;;4.70;;
50968;SDS011;36982;51.474;7.228;2023-07-20T02:39:29;7.47;;;5.20;;
50968;SDS011;36982;51.474;7.228;2023-07-20T02:41:55;7.93;;;5.73;;
50968;SDS011;36982;51.474;7.228;2023-07-20T02:44:21;10.77;;;5.17;;
50968;SDS011;36982;51.474;7.228;2023-07-20T02:46:47;8.00;;;4.83;;
50968;SDS011;36982;51.474;7.228;2023-07-20T02:49:14;7.53;;;5.33;;
50968;SDS011;36982;51.474;7.228;2023-07-20T02:51:40;7.03;;;5.70;;
50968;SDS011;36982;51.474;7.228;2023-07-20T02:54:06;9.53;;;5.97;;
50968;SDS011;36982;51.474;7.228;2023-07-20T02:56:31;9.93;;;6.10;;
50968;SDS011;36982;51.474;7.228;2023-07-20T02:58:57;8.33;;;6.10;;
50968;SDS011;36982;51.474;7.228;2023-07-20T03:01:23;8.27;;;6.27;;
50968;SDS011;36982;51.474;7.228;2023-07-20T03:03:48;10.23;;;6.67;;
50968;SDS011;36982;51.474;7.228;2023-07-20T03:06:14;9.07;;;6.57;;
50968;SDS011;36982;51.474;7.228;2023-07-20T03:08:44;8.57;;;6.40;;
50968;SDS011;36982;51.474;7.228;2023-07-20T03:11:12;11.93;;;5.90;;
50968;SDS011;36982;51.474;7.228;2023-07-20T03:13:39;9.60;;;6.07;;
50968;SDS011;36982;51.474;7.228;2023-07-20T03:16:06;9.57;;;6.30;;
50968;SDS011;36982;51.474;7.228;2023-07-20T03:18:36;8.43;;;5.90;;
50968;SDS011;36982;51.474;7.228;2023-07-20T03:21:02;9.30;;;6.20;;
50968;SDS011;36982;51.474;7.228;2023-07-20T03:23:28;7.37;;;6.20;;
50968;SDS011;36982;51.474;7.228;2023-07-20T03:25:53;7.90;;;6.37;;
50968;SDS011;36982;51.474;7.228;2023-07-20T03:28:20;7.97;;;5.83;;
50968;SDS011;36982;51.474;7.228;2023-07-20T03:30:45;10.33;;;6.53;;
50968;SDS011;36982;51.474;7.228;2023-07-20T03:33:11;7.83;;;6.30;;
50968;SDS011;36982;51.474;7.228;2023-07-20T03:35:37;9.23;;;6.77;;
50968;SDS011;36982;51.474;7.228;2023-07-20T03:38:04;9.17;;;6.73;;
50968;SDS011;36982;51.474;7.228;2023-07-20T03:40:29;9.87;;;6.80;;
50968;SDS011;36982;51.474;7.228;2023-07-20T03:42:55;8.87;;;6.80;;
50968;SDS011;36982;51.474;7.228;2023-07-20T03:45:20;10.73;;;7.10;;
50968;SDS011;36982;51.474;7.228;2023-07-20T03:47:49;9.87;;;6.27;;
50968;SDS011;36982;51.474;7.228;2023-07-20T03:50:14;10.13;;;6.90;;
50968;SDS011;36982;51.474;7.228;2023-07-20T03:52:40;6.93;;;6.23;;
50968;SDS011;36982;51.474;7.228;2023-07-20T03:55:06;9.00;;;6.50;;
50968;SDS011;36982;51.474;7.228;2023-07-20T03:57:31;9.93;;;7.00;;
50968;SDS011;36982;51.474;7.228;2023-07-20T03:59:58;12.17;;;6.70;;
50968;SDS011;36982;51.474;7.228;2023-07-20T04:02:24;9.90;;;7.13;;
50968;SDS011;36982;51.474;7.228;2023-07-20T04:04:50;9.90;;;7.33;;
50968;SDS011;36982;51.474;7.228;2023-07-20T04:07:16;12.77;;;8.60;;
50968;SDS011;36982;51.474;7.228;2023-07-20T04:09:41;11.20;;;8.90;;
50968;SDS011;36982;51.474;7.228;2023-07-20T04:12:07;13.23;;;8.73;;
50968;SDS011;36982;51.474;7.228;2023-07-20T04:14:33;14.10;;;10.50;;
50968;SDS011;36982;51.474;7.228;2023-07-20T04:16:58;13.03;;;9.50;;
50968;SDS011;36982;51.474;7.228;2023-07-20T04:19:25;17.13;;;10.80;;
50968;SDS011;36982;51.474;7.228;2023-07-20T04:21:51;18.00;;;12.07;;
50968;SDS011;36982;51.474;7.228;2023-07-20T04:24:16;16.07;;;11.33;;
50968;SDS011;36982;51.474;7.228;2023-07-20T04:26:42;14.20;;;11.00;;
50968;SDS011;36982;51.474;7.228;2023-07-20T04:29:08;15.53;;;12.43;;
50968;SDS011;36982;51.474;7.228;2023-07-20T04:31:34;15.27;;;12.07;;
50968;SDS011;36982;51.474;7.228;2023-07-20T04:34:00;16.77;;;12.10;;
50968;SDS011;36982;51.474;7.228;2023-07-20T04:36:26;16.20;;;11.93;;
50968;SDS011;36982;51.474;7.228;2023-07-20T04:38:51;15.03;;;12.10;;
50968;SDS011;36982;51.474;7.228;2023-07-20T04:41:17;15.80;;;12.57;;
50968;SDS011;36982;51.474;7.228;2023-07-20T04:43:43;15.70;;;12.90;;
50968;SDS011;36982;51.474;7.228;2023-07-20T04:46:09;17.70;;;13.70;;
50968;SDS011;36982;51.474;7.228;2023-07-20T04:48:35;18.67;;;14.40;;
50968;SDS011;36982;51.474;7.228;2023-07-20T04:51:01;19.37;;;14.47;;
50968;SDS011;36982;51.474;7.228;2023-07-20T04:53:26;17.10;;;13.40;;
50968;SDS011;36982;51.474;7.228;2023-07-20T04:55:52;17.30;;;13.23;;
50968;SDS011;36982;51.474;7.228;2023-07-20T04:58:19;17.80;;;13.73;;
50968;SDS011;36982;51.474;7.228;2023-07-20T05:00:46;17.00;;;13.90;;
50968;SDS011;36982;51.474;7.228;2023-07-20T05:03:13;15.90;;;12.50;;
50968;SDS011;36982;51.474;7.228;2023-07-20T05:05:38;16.37;;;13.47;;
50968;SDS011;36982;51.474;7.228;2023-07-20T05:08:04;16.60;;;13.13;;
50968;SDS011;36982;51.474;7.228;2023-07-20T05:10:30;14.50;;;12.47;;
50968;SDS011;36982;51.474;7.228;2023-07-20T05:12:55;14.57;;;12.17;;
50968;SDS011;36982;51.474;7.228;2023-07-20T05:15:21;14.37;;;12.67;;
50968;SDS011;36982;51.474;7.228;2023-07-20T05:17:47;15.90;;;12.07;;
50968;SDS011;36982;51.474;7.228;2023-07-20T05:20:14;14.33;;;10.77;;
50968;SDS011;36982;51.474;7.228;2023-07-20T05:22:39;12.47;;;10.10;;
50968;SDS011;36982;51.474;7.228;2023-07-20T05:25:06;11.73;;;9.93;;
50968;SDS011;36982;51.474;7.228;2023-07-20T05:27:33;10.17;;;8.60;;
50968;SDS011;36982;51.474;7.228;2023-07-20T05:29:59;10.23;;;9.20;;
50968;SDS011;36982;51.474;7.228;2023-07-20T05:32:25;11.70;;;9.67;;
50968;SDS011;36982;51.474;7.228;2023-07-20T05:34:52;13.63;;;10.30;;
50968;SDS011;36982;51.474;7.228;2023-07-20T05:37:18;10.77;;;9.23;;
50968;SDS011;36982;51.474;7.228;2023-07-20T05:39:43;10.13;;;8.10;;
50968;SDS011;36982;51.474;7.228;2023-07-20T05:42:09;9.73;;;7.50;;
50968;SDS011;36982;51.474;7.228;2023-07-20T05:44:34;10.10;;;8.93;;
50968;SDS011;36982;51.474;7.228;2023-07-20T05:47:00;11.20;;;8.37;;
50968;SDS011;36982;51.474;7.228;2023-07-20T05:49:27;8.70;;;7.83;;
50968;SDS011;36982;51.474;7.228;2023-07-20T05:51:53;7.87;;;7.07;;
50968;SDS011;36982;51.474;7.228;2023-07-20T05:54:20;7.83;;;7.03;;
50968;SDS011;36982;51.474;7.228;2023-07-20T05:56:46;8.13;;;7.30;;
50968;SDS011;36982;51.474;7.228;2023-07-20T05:59:12;8.27;;;6.60;;
50968;SDS011;36982;51.474;7.228;2023-07-20T06:01:38;7.27;;;6.27;;
50968;SDS011;36982;51.474;7.228;2023-07-20T06:04:03;7.80;;;7.00;;
50968;SDS011;36982;51.474;7.228;2023-07-20T06:06:29;6.70;;;6.00;;
50968;SDS011;36982;51.474;7.228;2023-07-20T06:08:55;7.47;;;6.07;;
50968;SDS011;36982;51.474;7.228;2023-07-20T06:11:20;10.17;;;6.20;;
50968;SDS011;36982;51.474;7.228;2023-07-20T06:13:46;7.77;;;6.80;;
50968;SDS011;36982;51.474;7.228;2023-07-20T06:16:11;10.37;;;7.53;;
50968;SDS011;36982;51.474;7.228;2023-07-20T06:18:37;9.03;;;8.13;;
50968;SDS011;36982;51.474;7.228;2023-07-20T06:21:03;8.83;;;7.10;;
50968;SDS011;36982;51.474;7.228;2023-07-20T06:23:29;8.97;;;7.30;;
50968;SDS011;36982;51.474;7.228;2023-07-20T06:25:55;8.77;;;6.97;;
50968;SDS011;36982;51.474;7.228;2023-07-20T06:28:21;5.80;;;5.30;;
50968;SDS011;36982;51.474;7.228;2023-07-20T06:30:46;6.07;;;5.33;;
50968;SDS011;36982;51.474;7.228;2023-07-20T06:33:12;6.13;;;4.97;;
50968;SDS011;36982;51.474;7.228;2023-07-20T06:35:37;6.30;;;5.70;;
50968;SDS011;36982;51.474;7.228;2023-07-20T06:38:07;7.93;;;5.80;;
50968;SDS011;36982;51.474;7.228;2023-07-20T06:40:33;6.40;;;5.77;;
50968;SDS011;36982;51.474;7.228;2023-07-20T06:42:59;6.00;;;5.40;;
50968;SDS011;36982;51.474;7.228;2023-07-20T06:45:24;7.40;;;6.60;;
50968;SDS011;36982;51.474;7.228;2023-07-20T06:47:50;7.23;;;6.53;;
50968;SDS011;36982;51.474;7.228;2023-07-20T06:50:16;7.77;;;6.20;;
50968;SDS011;36982;51.474;7.228;2023-07-20T06:52:41;6.50;;;5.90;;
50968;SDS011;36982;51.474;7.228;2023-07-20T06:55:07;6.93;;;6.22;;
50968;SDS011;36982;51.474;7.228;2023-07-20T06:57:33;8.00;;;7.20;;
50968;SDS011;36982;51.474;7.228;2023-07-20T06:59:59;7.00;;;6.10;;
50968;SDS011;36982;51.474;7.228;2023-07-20T07:02:24;6.78;;;5.90;;
50968;SDS011;36982;51.474;7.228;2023-07-20T07:04:50;7.25;;;6.03;;
50968;SDS011;36982;51.474;7.228;2023-07-20T07:07:15;7.15;;;6.43;;
50968;SDS011;36982;51.474;7.228;2023-07-20T07:09:41;6.43;;;5.82;;
50968;SDS011;36982;51.474;7.228;2023-07-20T07:12:07;6.72;;;6.12;;
50968;SDS011;36982;51.474;7.228;2023-07-20T07:14:33;7.87;;;7.07;;
50968;SDS011;36982;51.474;7.228;2023-07-20T07:16:59;7.37;;;6.67;;
50968;SDS011;36982;51.474;7.228;2023-07-20T07:19:25;8.00;;;7.23;;
50968;SDS011;36982;51.474;7.228;2023-07-20T07:21:51;8.20;;;7.40;;
50968;SDS011;36982;51.474;7.228;2023-07-20T07:24:16;9.37;;;8.50;;
50968;SDS011;36982;51.474;7.228;2023-07-20T07:26:42;8.53;;;7.73;;
50968;SDS011;36982;51.474;7.228;2023-07-20T07:29:08;8.67;;;7.87;;
50968;SDS011;36982;51.474;7.228;2023-07-20T07:31:34;8.60;;;7.30;;
50968;SDS011;36982;51.474;7.228;2023-07-20T07:34:03;7.82;;;7.05;;
50968;SDS011;36982;51.474;7.228;2023-07-20T07:36:29;8.10;;;7.03;;
50968;SDS011;36982;51.474;7.228;2023-07-20T07:38:55;7.78;;;7.07;;
50968;SDS011;36982;51.474;7.228;2023-07-20T07:41:21;8.35;;;7.45;;
50968;SDS011;36982;51.474;7.228;2023-07-20T07:43:47;7.10;;;6.40;;
50968;SDS011;36982;51.474;7.228;2023-07-20T07:46:13;6.60;;;6.00;;
50968;SDS011;36982;51.474;7.228;2023-07-20T07:48:39;4.50;;;4.10;;
50968;SDS011;36982;51.474;7.228;2023-07-20T07:51:04;4.28;;;3.87;;
50968;SDS011;36982;51.474;7.228;2023-07-20T07:53:31;4.70;;;4.12;;
50968;SDS011;36982;51.474;7.228;2023-07-20T07:55:57;4.53;;;4.12;;
50968;SDS011;36982;51.474;7.228;2023-07-20T07:58:23;4.40;;;4.00;;
50968;SDS011;36982;51.474;7.228;2023-07-20T08:00:49;4.18;;;3.78;;
50968;SDS011;36982;51.474;7.228;2023-07-20T08:03:14;4.43;;;4.03;;
50968;SDS011;36982;51.474;7.228;2023-07-20T08:05:40;4.37;;;4.07;;
50968;SDS011;36982;51.474;7.228;2023-07-20T08:08:05;4.70;;;3.53;;
50968;SDS011;36982;51.474;7.228;2023-07-20T08:10:31;5.57;;;4.85;;
50968;SDS011;36982;51.474;7.228;2023-07-20T08:12:57;5.87;;;4.35;;
50968;SDS011;36982;51.474;7.228;2023-07-20T08:15:22;4.00;;;3.60;;
50968;SDS011;36982;51.474;7.228;2023-07-20T08:17:48;4.10;;;3.72;;
50968;SDS011;36982;51.474;7.228;2023-07-20T08:20:16;6.03;;;5.43;;
50968;SDS011;36982;51.474;7.228;2023-07-20T08:22:43;5.55;;;5.03;;
50968;SDS011;36982;51.474;7.228;2023-07-20T08:25:09;5.60;;;4.55;;
50968;SDS011;36982;51.474;7.228;2023-07-20T08:27:35;4.90;;;4.50;;
50968;SDS011;36982;51.474;7.228;2023-07-20T08:30:01;4.85;;;4.45;;
50968;SDS011;36982;51.474;7.228;2023-07-20T08:32:29;4.70;;;4.20;;
50968;SDS011;36982;51.474;7.228;2023-07-20T08:34:54;4.93;;;4.43;;
50968;SDS011;36982;51.474;7.228;2023-07-20T08:37:20;4.47;;;4.07;;
50968;SDS011;36982;51.474;7.228;2023-07-20T08:39:46;4.80;;;4.40;;
50968;SDS011;36982;51.474;7.228;2023-07-20T08:42:11;4.55;;;4.15;;
50968;SDS011;36982;51.474;7.228;2023-07-20T08:44:39;4.35;;;3.95;;
50968;SDS011;36982;51.474;7.228;2023-07-20T08:47:07;4.30;;;4.00;;
50968;SDS011;36982;51.474;7.228;2023-07-20T08:49:34;3.65;;;3.35;;
50968;SDS011;36982;51.474;7.228;2023-07-20T08:52:00;3.50;;;3.20;;
50968;SDS011;36982;51.474;7.228;2023-07-20T08:54:29;4.47;;;3.80;;
50968;SDS011;36982;51.474;7.228;2023-07-20T08:57:02;3.67;;;3.37;;
50968;SDS011;36982;51.474;7.228;2023-07-20T08:59:28;3.60;;;3.00;;
50968;SDS011;36982;51.474;7.228;2023-07-20T09:01:56;3.70;;;3.40;;
50968;SDS011;36982;51.474;7.228;2023-07-20T09:04:23;3.60;;;3.12;;
50968;SDS011;36982;51.474;7.228;2023-07-20T09:06:49;3.58;;;3.28;;
50968;SDS011;36982;51.474;7.228;2023-07-20T09:09:15;3.83;;;3.53;;
50968;SDS011;36982;51.474;7.228;2023-07-20T09:11:41;3.58;;;2.97;;
50968;SDS011;36982;51.474;7.228;2023-07-20T09:14:07;3.40;;;3.10;;
50968;SDS011;36982;51.474;7.228;2023-07-20T09:16:48;3.10;;;2.55;;
50968;SDS011;36982;51.474;7.228;2023-07-20T09:19:14;3.20;;;2.90;;
50968;SDS011;36982;51.474;7.228;2023-07-20T09:21:43;3.20;;;2.90;;
50968;SDS011;36982;51.474;7.228;2023-07-20T09:24:10;3.95;;;3.60;;
50968;SDS011;36982;51.474;7.228;2023-07-20T09:26:40;3.87;;;3.58;;
50968;SDS011;36982;51.474;7.228;2023-07-20T09:29:07;3.80;;;3.50;;
50968;SDS011;36982;51.474;7.228;2023-07-20T09:31:34;4.15;;;3.47;;
50968;SDS011;36982;51.474;7.228;2023-07-20T09:33:59;3.12;;;2.90;;
50968;SDS011;36982;51.474;7.228;2023-07-20T09:36:28;4.25;;;3.95;;
50968;SDS011;36982;51.474;7.228;2023-07-20T09:38:54;5.03;;;3.90;;
50968;SDS011;36982;51.474;7.228;2023-07-20T09:41:20;3.85;;;3.50;;
50968;SDS011;36982;51.474;7.228;2023-07-20T09:43:46;3.65;;;3.35;;
50968;SDS011;36982;51.474;7.228;2023-07-20T09:46:12;3.55;;;3.03;;
50968;SDS011;36982;51.474;7.228;2023-07-20T09:48:38;3.70;;;3.40;;
50968;SDS011;36982;51.474;7.228;2023-07-20T09:51:04;3.65;;;3.35;;
50968;SDS011;36982;51.474;7.228;2023-07-20T09:53:32;4.10;;;3.70;;
50968;SDS011;36982;51.474;7.228;2023-07-20T09:55:58;4.97;;;4.10;;
50968;SDS011;36982;51.474;7.228;2023-07-20T09:58:27;3.58;;;3.28;;
50968;SDS011;36982;51.474;7.228;2023-07-20T10:00:56;3.92;;;3.25;;
50968;SDS011;36982;51.474;7.228;2023-07-20T10:03:22;3.85;;;3.00;;
50968;SDS011;36982;51.474;7.228;2023-07-20T10:06:00;2.90;;;2.70;;
50968;SDS011;36982;51.474;7.228;2023-07-20T10:08:32;2.83;;;2.60;;
50968;SDS011;36982;51.474;7.228;2023-07-20T10:10:59;2.75;;;2.55;;
50968;SDS011;36982;51.474;7.228;2023-07-20T10:13:27;2.85;;;2.65;;
50968;SDS011;36982;51.474;7.228;2023-07-20T10:15:57;2.40;;;2.20;;
50968;SDS011;36982;51.474;7.228;2023-07-20T10:18:38;2.70;;;2.40;;
50968;SDS011;36982;51.474;7.228;2023-07-20T10:21:13;2.70;;;2.17;;
50968;SDS011;36982;51.474;7.228;2023-07-20T10:23:42;2.70;;;1.95;;
50968;SDS011;36982;51.474;7.228;2023-07-20T10:26:07;1.90;;;1.80;;
50968;SDS011;36982;51.474;7.228;2023-07-20T10:28:34;1.98;;;1.70;;
50968;SDS011;36982;51.474;7.228;2023-07-20T10:31:00;1.92;;;1.83;;
50968;SDS011;36982;51.474;7.228;2023-07-20T10:33:26;1.73;;;1.50;;
50968;SDS011;36982;51.474;7.228;2023-07-20T10:35:53;2.40;;;2.08;;
50968;SDS011;36982;51.474;7.228;2023-07-20T10:43:42;1.50;;;1.37;;
50968;SDS011;36982;51.474;7.228;2023-07-20T10:46:10;2.28;;;1.70;;
50968;SDS011;36982;51.474;7.228;2023-07-20T10:48:39;2.17;;;1.90;;
50968;SDS011;36982;51.474;7.228;2023-07-20T10:51:27;1.40;;;1.30;;
50968;SDS011;36982;51.474;7.228;2023-07-20T10:53:54;2.00;;;1.40;;
50968;SDS011;36982;51.474;7.228;2023-07-20T10:56:26;1.48;;;1.17;;
50968;SDS011;36982;51.474;7.228;2023-07-20T10:58:58;1.80;;;1.35;;
50968;SDS011;36982;51.474;7.228;2023-07-20T11:01:28;1.30;;;1.20;;
50968;SDS011;36982;51.474;7.228;2023-07-20T11:04:00;2.17;;;1.10;;
50968;SDS011;36982;51.474;7.228;2023-07-20T11:06:33;1.42;;;1.33;;
50968;SDS011;36982;51.474;7.228;2023-07-20T11:09:08;1.62;;;1.10;;
50968;SDS011;36982;51.474;7.228;2023-07-20T11:11:36;1.85;;;1.10;;
50968;SDS011;36982;51.474;7.228;2023-07-20T11:14:04;2.37;;;1.05;;
50968;SDS011;36982;51.474;7.228;2023-07-20T11:18:59;2.03;;;0.95;;
50968;SDS011;36982;51.474;7.228;2023-07-20T11:21:25;1.15;;;1.05;;
50968;SDS011;36982;51.474;7.228;2023-07-20T11:23:54;1.10;;;0.95;;
50968;SDS011;36982;51.474;7.228;2023-07-20T11:26:20;1.17;;;1.08;;
50968;SDS011;36982;51.474;7.228;2023-07-20T11:28:50;1.40;;;0.98;;
50968;SDS011;36982;51.474;7.228;2023-07-20T11:31:17;0.90;;;0.90;;
50968;SDS011;36982;51.474;7.228;2023-07-20T11:33:43;2.10;;;0.82;;
50968;SDS011;36982;51.474;7.228;2023-07-20T11:36:09;1.67;;;1.00;;
50968;SDS011;36982;51.474;7.228;2023-07-20T11:38:35;2.12;;;1.60;;
50968;SDS011;36982;51.474;7.228;2023-07-20T11:41:02;1.10;;;1.00;;
50968;SDS011;36982;51.474;7.228;2023-07-20T11:43:28;2.75;;;1.70;;
50968;SDS011;36982;51.474;7.228;2023-07-20T11:45:55;1.23;;;1.10;;
50968;SDS011;36982;51.474;7.228;2023-07-20T11:48:21;1.87;;;1.02;;
50968;SDS011;36982;51.474;7.228;2023-07-20T11:50:47;1.77;;;1.20;;
50968;SDS011;36982;51.474;7.228;2023-07-20T11:53:13;2.92;;;1.35;;
50968;SDS011;36982;51.474;7.228;2023-07-20T11:55:40;1.20;;;1.10;;
50968;SDS011;36982;51.474;7.228;2023-07-20T11:58:06;1.48;;;1.37;;
50968;SDS011;36982;51.474;7.228;2023-07-20T12:00:34;1.40;;;1.10;;
50968;SDS011;36982;51.474;7.228;2023-07-20T12:03:00;1.48;;;1.10;;
50968;SDS011;36982;51.474;7.228;2023-07-20T12:05:26;1.48;;;0.93;;
50968;SDS011;36982;51.474;7.228;2023-07-20T12:07:52;1.48;;;1.05;;
50968;SDS011;36982;51.474;7.228;2023-07-20T12:10:26;0.98;;;0.90;;
50968;SDS011;36982;51.474;7.228;2023-07-20T12:13:02;0.98;;;0.85;;
50968;SDS011;36982;51.474;7.228;2023-07-20T12:15:28;1.30;;;0.93;;
50968;SDS011;36982;51.474;7.228;2023-07-20T12:18:01;1.10;;;0.90;;
50968;SDS011;36982;51.474;7.228;2023-07-20T12:23:10;1.23;;;0.88;;
50968;SDS011;36982;51.474;7.228;2023-07-20T12:28:13;1.40;;;1.05;;
50968;SDS011;36982;51.474;7.228;2023-07-20T12:30:40;1.15;;;1.05;;
50968;SDS011;36982;51.474;7.228;2023-07-20T12:33:07;1.98;;;1.40;;
50968;SDS011;36982;51.474;7.228;2023-07-20T12:35:33;2.08;;;1.20;;
50968;SDS011;36982;51.474;7.228;2023-07-20T12:37:58;1.92;;;0.82;;
50968;SDS011;36982;51.474;7.228;2023-07-20T12:40:24;1.58;;;1.40;;
50968;SDS011;36982;51.474;7.228;2023-07-20T12:42:50;1.40;;;1.20;;
50968;SDS011;36982;51.474;7.228;2023-07-20T12:45:15;2.10;;;1.20;;
50968;SDS011;36982;51.474;7.228;2023-07-20T12:47:41;1.37;;;1.17;;
50968;SDS011;36982;51.474;7.228;2023-07-20T12:50:08;1.30;;;1.20;;
50968;SDS011;36982;51.474;7.228;2023-07-20T12:52:38;1.65;;;1.20;;
50968;SDS011;36982;51.474;7.228;2023-07-20T12:55:05;1.25;;;1.15;;
50968;SDS011;36982;51.474;7.228;2023-07-20T12:57:32;1.95;;;1.40;;
50968;SDS011;36982;51.474;7.228;2023-07-20T12:59:59;1.23;;;1.02;;
50968;SDS011;36982;51.474;7.228;2023-07-20T13:02:24;3.55;;;1.62;;
50968;SDS011;36982;51.474;7.228;2023-07-20T13:04:50;1.60;;;1.17;;
50968;SDS011;36982;51.474;7.228;2023-07-20T13:07:15;2.25;;;1.40;;
50968;SDS011;36982;51.474;7.228;2023-07-20T13:09:41;3.65;;;1.30;;
50968;SDS011;36982;51.474;7.228;2023-07-20T13:12:07;3.05;;;1.20;;
50968;SDS011;36982;51.474;7.228;2023-07-20T13:14:33;1.50;;;1.15;;
50968;SDS011;36982;51.474;7.228;2023-07-20T13:16:59;1.92;;;1.20;;
50968;SDS011;36982;51.474;7.228;2023-07-20T13:19:24;1.77;;;1.50;;
50968;SDS011;36982;51.474;7.228;2023-07-20T13:21:50;2.97;;;1.73;;
50968;SDS011;36982;51.474;7.228;2023-07-20T13:24:16;5.93;;;2.35;;
50968;SDS011;36982;51.474;7.228;2023-07-20T13:26:42;1.52;;;1.42;;
50968;SDS011;36982;51.474;7.228;2023-07-20T13:29:07;2.28;;;1.10;;
50968;SDS011;36982;51.474;7.228;2023-07-20T13:31:33;1.98;;;1.25;;
50968;SDS011;36982;51.474;7.228;2023-07-20T13:33:58;1.65;;;1.30;;
50968;SDS011;36982;51.474;7.228;2023-07-20T13:36:24;1.90;;;1.10;;
50968;SDS011;36982;51.474;7.228;2023-07-20T13:38:50;1.48;;;1.37;;
50968;SDS011;36982;51.474;7.228;2023-07-20T13:41:15;1.30;;;1.20;;
50968;SDS011;36982;51.474;7.228;2023-07-20T13:43:44;2.10;;;1.20;;
50968;SDS011;36982;51.474;7.228;2023-07-20T13:46:09;1.20;;;1.10;;
50968;SDS011;36982;51.474;7.228;2023-07-20T13:48:35;0.90;;;0.88;;
50968;SDS011;36982;51.474;7.228;2023-07-20T13:51:00;2.28;;;1.27;;
50968;SDS011;36982;51.474;7.228;2023-07-20T13:53:26;1.58;;;1.00;;
50968;SDS011;36982;51.474;7.228;2023-07-20T13:55:52;1.20;;;1.10;;
50968;SDS011;36982;51.474;7.228;2023-07-20T13:58:18;1.62;;;1.40;;
50968;SDS011;36982;51.474;7.228;2023-07-20T14:00:44;1.30;;;1.20;;
50968;SDS011;36982;51.474;7.228;2023-07-20T14:03:10;2.22;;;1.37;;
50968;SDS011;36982;51.474;7.228;2023-07-20T14:05:35;1.33;;;1.23;;
50968;SDS011;36982;51.474;7.228;2023-07-20T14:08:01;1.75;;;1.62;;
50968;SDS011;36982;51.474;7.228;2023-07-20T14:10:26;2.25;;;1.60;;
50968;SDS011;36982;51.474;7.228;2023-07-20T14:12:52;1.40;;;1.20;;
50968;SDS011;36982;51.474;7.228;2023-07-20T14:15:17;1.58;;;1.42;;
50968;SDS011;36982;51.474;7.228;2023-07-20T14:17:44;1.77;;;1.40;;
50968;SDS011;36982;51.474;7.228;2023-07-20T14:20:09;1.40;;;1.30;;
50968;SDS011;36982;51.474;7.228;2023-07-20T14:22:35;1.42;;;1.20;;
50968;SDS011;36982;51.474;7.228;2023-07-20T14:25:02;1.10;;;1.00;;
50968;SDS011;36982;51.474;7.228;2023-07-20T14:27:28;2.42;;;1.50;;
50968;SDS011;36982;51.474;7.228;2023-07-20T14:29:53;1.95;;;1.12;;
50968;SDS011;36982;51.474;7.228;2023-07-20T14:32:20;1.30;;;1.20;;
50968;SDS011;36982;51.474;7.228;2023-07-20T14:34:45;1.80;;;1.10;;
50968;SDS011;36982;51.474;7.228;2023-07-20T14:37:11;1.58;;;1.45;;
50968;SDS011;36982;51.474;7.228;2023-07-20T14:39:38;1.40;;;1.30;;
50968;SDS011;36982;51.474;7.228;2023-07-20T14:42:03;1.45;;;1.10;;
50968;SDS011;36982;51.474;7.228;2023-07-20T14:44:29;4.00;;;1.52;;
50968;SDS011;36982;51.474;7.228;2023-07-20T14:46:55;2.05;;;1.05;;
50968;SDS011;36982;51.474;7.228;2023-07-20T14:49:20;2.25;;;1.20;;
50968;SDS011;36982;51.474;7.228;2023-07-20T14:51:46;2.15;;;1.83;;
50968;SDS011;36982;51.474;7.228;2023-07-20T14:54:12;1.17;;;1.08;;
50968;SDS011;36982;51.474;7.228;2023-07-20T14:56:46;2.72;;;1.12;;
50968;SDS011;36982;51.474;7.228;2023-07-20T14:59:14;2.03;;;1.00;;
50968;SDS011;36982;51.474;7.228;2023-07-20T15:01:40;1.65;;;1.00;;
50968;SDS011;36982;51.474;7.228;2023-07-20T15:04:06;1.40;;;1.20;;